Time;durP1;ratioP1;P1;durP2;ratioP2;P2;SDS_P1;SDS_P2;PMS_P1;PMS_P2;Temp;Humidity;BMP_temperature;BMP_pressure;BME280_temperature;BME280_humidity;BME280_pressure;Samples;Min_cycle;Max_cycle;Signal;HPM_P1;HPM_P2
2022/05/21 00:03:41;;;;;;;14.15;6.70;;;;;;;;;;10442308;28;20106;-68
2022/05/21 00:08:43;;;;;;;8.13;4.10;;;;;;;;;;10443387;28;20045;-67
2022/05/21 00:13:47;;;;;;;9.15;4.20;;;;;;;;;;10430683;28;20052;-68
2022/05/21 00:18:48;;;;;;;7.82;4.00;;;;;;;;;;10425819;28;20041;-70
2022/05/21 00:23:50;;;;;;;9.68;4.07;;;;;;;;;;10430987;28;20087;-69
2022/05/21 00:28:51;;;;;;;6.72;3.78;;;;;;;;;;10437487;28;20045;-68
2022/05/21 00:33:53;;;;;;;8.25;4.10;;;;;;;;;;10434887;28;20056;-69
2022/05/21 00:38:54;;;;;;;11.43;4.50;;;;;;;;;;10444056;28;20041;-69
2022/05/21 00:43:57;;;;;;;11.35;5.40;;;;;;;;;;10436399;28;20044;-69
2022/05/21 00:49:05;;;;;;;10.23;5.60;;;;;;;;;;10443416;28;20409;-68
2022/05/21 00:54:07;;;;;;;10.70;5.72;;;;;;;;;;10429104;28;20056;-69
2022/05/21 01:04:30;;;;;;;10.75;6.43;;;;;;;;;;10442068;28;20489;-69
2022/05/21 01:09:32;;;;;;;10.02;5.63;;;;;;;;;;10435715;28;20053;-70
2022/05/21 01:14:33;;;;;;;12.25;5.63;;;;;;;;;;10435280;28;20046;-68
2022/05/21 01:19:54;;;;;;;10.95;6.18;;;;;;;;;;10428894;28;20048;-68
2022/05/21 01:24:56;;;;;;;16.65;5.88;;;;;;;;;;10431221;28;20207;-69
2022/05/21 01:29:57;;;;;;;10.23;5.65;;;;;;;;;;10433010;28;20688;-70
2022/05/21 01:34:59;;;;;;;13.27;5.93;;;;;;;;;;10455123;28;20064;-70
2022/05/21 01:40:00;;;;;;;11.65;5.53;;;;;;;;;;10427665;28;20056;-69
2022/05/21 01:45:02;;;;;;;10.40;5.82;;;;;;;;;;10433642;28;20049;-70
2022/05/21 01:50:04;;;;;;;13.20;5.78;;;;;;;;;;10434942;28;20052;-68
2022/05/21 01:55:05;;;;;;;12.55;5.80;;;;;;;;;;10431131;28;20045;-69
2022/05/21 02:00:07;;;;;;;11.90;5.97;;;;;;;;;;10421730;28;20053;-69
2022/05/21 02:05:12;;;;;;;11.95;6.25;;;;;;;;;;10449774;28;20045;-69
2022/05/21 02:10:13;;;;;;;15.05;6.75;;;;;;;;;;10441049;28;20047;-68
2022/05/21 02:15:14;;;;;;;16.48;8.02;;;;;;;;;;10427943;28;20061;-69
2022/05/21 02:20:16;;;;;;;15.85;8.38;;;;;;;;;;10419554;28;20068;-68
2022/05/21 02:25:18;;;;;;;15.07;9.85;;;;;;;;;;10418853;28;20052;-68
2022/05/21 02:30:19;;;;;;;17.55;10.05;;;;;;;;;;10410871;28;20037;-69
2022/05/21 02:35:21;;;;;;;19.73;11.57;;;;;;;;;;10435771;28;20071;-69
2022/05/21 02:40:23;;;;;;;19.02;12.40;;;;;;;;;;10429199;28;20051;-69
2022/05/21 02:45:26;;;;;;;20.45;12.50;;;;;;;;;;10437977;28;20120;-69
2022/05/21 02:50:33;;;;;;;20.77;13.10;;;;;;;;;;10439587;28;20049;-70
2022/05/21 02:55:35;;;;;;;21.08;13.15;;;;;;;;;;10433158;28;20045;-70
2022/05/21 03:00:37;;;;;;;22.08;13.77;;;;;;;;;;10440237;28;20060;-70
2022/05/21 03:05:39;;;;;;;24.13;14.95;;;;;;;;;;10413900;28;20052;-70
2022/05/21 03:10:41;;;;;;;23.95;15.00;;;;;;;;;;10421655;28;20046;-70
2022/05/21 03:15:42;;;;;;;27.25;16.13;;;;;;;;;;10436664;28;20049;-70
2022/05/21 03:20:43;;;;;;;25.75;16.70;;;;;;;;;;10426906;28;20433;-69
2022/05/21 03:25:45;;;;;;;25.50;17.30;;;;;;;;;;10431064;28;20501;-70
2022/05/21 03:30:46;;;;;;;35.40;18.23;;;;;;;;;;10428376;28;20135;-70
2022/05/21 03:35:48;;;;;;;35.72;19.50;;;;;;;;;;10444409;28;20520;-69
2022/05/21 03:40:49;;;;;;;28.20;18.02;;;;;;;;;;10445985;28;20056;-69
2022/05/21 03:45:51;;;;;;;32.88;20.75;;;;;;;;;;10446359;28;21093;-70
2022/05/21 03:50:52;;;;;;;38.35;22.80;;;;;;;;;;10438598;28;20932;-69
2022/05/21 03:55:54;;;;;;;38.90;24.58;;;;;;;;;;10445862;28;20052;-68
2022/05/21 04:00:56;;;;;;;40.70;25.10;;;;;;;;;;10446007;28;20048;-69
2022/05/21 04:05:57;;;;;;;40.95;23.67;;;;;;;;;;10448997;28;20132;-70
2022/05/21 04:10:59;;;;;;;36.42;25.20;;;;;;;;;;10437907;28;20056;-69
2022/05/21 04:16:00;;;;;;;35.80;25.40;;;;;;;;;;10431912;28;20044;-69
2022/05/21 04:21:02;;;;;;;44.92;26.65;;;;;;;;;;10423898;28;20040;-68
2022/05/21 04:26:03;;;;;;;40.25;25.73;;;;;;;;;;10438876;28;20052;-69
2022/05/21 04:31:05;;;;;;;43.88;25.80;;;;;;;;;;10441507;28;20715;-69
2022/05/21 04:36:18;;;;;;;43.38;27.52;;;;;;;;;;10423082;28;20452;-69
2022/05/21 04:41:20;;;;;;;38.75;26.20;;;;;;;;;;10436420;28;20052;-69
2022/05/21 04:46:24;;;;;;;37.35;25.13;;;;;;;;;;10437236;28;20413;-69
2022/05/21 04:51:25;;;;;;;42.20;25.75;;;;;;;11.24;nan;98897.38;10443247;28;20120;-69
2022/05/21 04:56:27;;;;;;;42.33;25.85;;;;;;;11.30;nan;98923.47;10437228;28;20045;-70
2022/05/21 05:01:44;;;;;;;37.28;24.25;;;;;;;;;;10440044;28;20125;-69
2022/05/21 05:06:45;;;;;;;40.47;24.55;;;;;;;;;;10421893;28;20053;-69
2022/05/21 05:11:47;;;;;;;35.63;22.17;;;;;;;;;;10424038;28;20265;-70
2022/05/21 05:16:49;;;;;;;37.67;22.13;;;;;;;;;;10434099;28;20045;-69
2022/05/21 05:21:52;;;;;;;34.78;21.20;;;;;;;;;;10430087;28;20049;-72
2022/05/21 05:26:53;;;;;;;34.80;20.63;;;;;;;;;;10431599;28;20158;-70
2022/05/21 05:31:55;;;;;;;33.63;19.90;;;;;;;;;;10416724;28;20572;-71
2022/05/21 05:36:56;;;;;;;30.67;17.63;;;;;;;;;;10433079;28;20056;-70
2022/05/21 05:41:58;;;;;;;26.65;17.00;;;;;;;;;;10406805;28;20029;-69
2022/05/21 05:47:00;;;;;;;30.00;17.50;;;;;;;;;;10436711;28;20055;-69
2022/05/21 05:52:01;;;;;;;32.92;18.60;;;;;;;;;;10428355;28;20045;-69
2022/05/21 05:57:07;;;;;;;35.42;19.13;;;;;;;;;;10402580;28;20053;-68
2022/05/21 06:07:28;;;;;;;28.70;14.85;;;;;;;;;;10412319;28;20417;-70
2022/05/21 06:12:31;;;;;;;30.70;14.30;;;;;;;;;;10419814;28;20041;-72
2022/05/21 06:17:33;;;;;;;22.27;12.07;;;;;;;;;;10413955;28;20107;-70
2022/05/21 06:22:35;;;;;;;25.30;12.07;;;;;;;;;;10421886;28;20548;-69
2022/05/21 06:27:37;;;;;;;21.17;8.57;;;;;;;;;;10408520;28;20120;-71
2022/05/21 06:32:38;;;;;;;16.00;6.88;;;;;;;;;;10425239;28;20044;-72
2022/05/21 06:37:40;;;;;;;21.63;7.22;;;;;;;;;;10420536;28;20056;-71
2022/05/21 06:42:41;;;;;;;17.52;6.13;;;;;;;;;;10413827;28;20099;-72
2022/05/21 06:47:43;;;;;;;14.85;4.93;;;;;;;;;;10417273;28;20052;-75
2022/05/21 06:52:44;;;;;;;16.90;5.65;;;;;;;;;;10415357;28;20060;-73
2022/05/21 06:57:47;;;;;;;19.33;4.65;;;;;;;;;;10424578;28;20523;-75
2022/05/21 07:02:53;;;;;;;16.17;3.80;;;;;;;;;;10422198;28;20128;-75
2022/05/21 07:07:55;;;;;;;18.48;3.22;;;;;;;;;;10404200;28;20045;-73
2022/05/21 07:12:56;;;;;;;16.05;3.38;;;;;;;;;;10398608;28;20041;-75
2022/05/21 07:18:00;;;;;;;15.00;2.92;;;;;;;;;;10421375;28;20037;-74
2022/05/21 07:23:02;;;;;;;13.70;2.60;;;;;;;;;;10423038;28;20037;-75
2022/05/21 07:28:03;;;;;;;17.20;3.17;;;;;;;;;;10425896;28;20045;-75
2022/05/21 07:33:07;;;;;;;12.55;2.40;;;;;;;;;;10453962;28;20045;-76
2022/05/21 07:38:10;;;;;;;9.88;2.20;;;;;;;;;;10419399;28;20480;-76
2022/05/21 07:43:16;;;;;;;11.35;2.63;;;;;;;;;;10424545;28;20046;-76
2022/05/21 07:48:19;;;;;;;10.32;2.33;;;;;;;;;;10430016;28;20045;-75
2022/05/21 07:53:24;;;;;;;12.98;2.03;;;;;;;;;;10428565;28;20216;-76
2022/05/21 07:58:27;;;;;;;10.13;1.75;;;;;;;;;;10430347;28;20037;-76
2022/05/21 08:03:29;;;;;;;11.00;2.17;;;;;;;;;;10450779;28;20053;-75
2022/05/21 08:08:31;;;;;;;10.48;2.30;;;;;;;;;;10436888;28;20061;-74
2022/05/21 08:13:34;;;;;;;13.38;2.42;;;;;;;;;;10415361;28;20132;-75
2022/05/21 08:18:35;;;;;;;9.88;2.38;;;;;;;;;;10433707;28;20500;-74
2022/05/21 08:28:57;;;;;;;12.32;2.42;;;;;;;;;;10432101;28;20141;-72
2022/05/21 08:34:02;;;;;;;10.80;2.40;;;;;;;;;;10442064;28;20079;-71
2022/05/21 08:39:04;;;;;;;8.32;2.50;;;;;;;;;;10422465;28;20045;-71
2022/05/21 08:44:05;;;;;;;8.93;3.10;;;;;;;;;;10441629;28;20043;-71
2022/05/21 08:49:08;;;;;;;8.02;2.47;;;;;;;;;;10414706;28;20043;-72
2022/05/21 08:54:11;;;;;;;10.82;2.53;;;;;;;;;;10433025;28;20044;-72
2022/05/21 08:59:14;;;;;;;14.38;2.67;;;;;;;;;;10433718;28;20056;-76
2022/05/21 09:04:16;;;;;;;17.35;2.70;;;;;;;;;;10442495;28;20621;-75
2022/05/21 09:09:28;;;;;;;12.27;2.20;;;;;;;;;;10400136;28;20052;-75
2022/05/21 09:14:45;;;;;;;15.65;2.28;;;;;;;;;;10402185;28;20034;-75
2022/05/21 09:19:57;;;;;;;14.77;2.45;;;;;;;;;;10411512;28;20037;-76
2022/05/21 09:25:15;;;;;;;11.40;2.28;;;;;;;;;;10413545;28;20045;-76
2022/05/21 09:30:31;;;;;;;12.23;2.70;;;;;;;;;;10419110;28;20496;-76
2022/05/21 09:35:47;;;;;;;12.82;2.35;;;;;;;;;;10434373;28;20061;-75
2022/05/21 09:40:49;;;;;;;8.25;2.05;;;;;;;;;;10407368;28;20049;-74
2022/05/21 09:45:51;;;;;;;20.50;2.20;;;;;;;;;;10411852;28;20137;-75
2022/05/21 09:50:57;;;;;;;12.73;1.80;;;;;;;17.41;nan;101571.44;10412111;28;20049;-76
2022/05/21 09:56:17;;;;;;;7.68;2.45;;;;;;;17.91;nan;101787.00;10389207;28;20120;-75
2022/05/21 10:01:36;;;;;;;8.73;1.50;;;;;;;;;;10414317;28;20033;-78
2022/05/21 10:06:40;;;;;;;11.57;2.00;;;;;;;;;;10395679;28;20094;-76
2022/05/21 10:12:04;;;;;;;6.75;2.15;;;;;;;;;;10435835;28;20071;-76
2022/05/21 10:17:13;;;;;;;7.03;1.60;;;;;;;;;;10444068;28;20128;-76
2022/05/21 10:22:47;;;;;;;8.38;1.63;;;;;;;;;;10429004;28;20052;-75
2022/05/21 10:27:48;;;;;;;6.53;1.63;;;;;;;;;;10400660;28;20549;-75
2022/05/21 10:33:12;;;;;;;8.75;1.55;;;;;;;16.61;nan;101174.63;10420938;28;20061;-75
2022/05/21 10:38:48;;;;;;;12.30;1.98;;;;;;;16.72;nan;101223.09;10426702;28;20037;-77
2022/05/21 10:44:10;;;;;;;9.55;1.70;;;;;;;17.10;nan;101378.25;10417588;28;20041;-75
2022/05/21 10:49:45;;;;;;;8.55;1.50;;;;;;;16.77;nan;101236.28;10410762;28;20041;-77
2022/05/21 10:55:13;;;;;;;7.57;1.30;;;;;;;16.97;nan;101318.28;10431630;28;20052;-76
2022/05/21 11:00:37;;;;;;;8.15;1.38;;;;;;;17.74;nan;101641.22;10414011;28;20041;-75
2022/05/21 11:05:41;;;;;;;11.52;1.90;;;;;;;;;;10432140;28;20060;-77
2022/05/21 11:10:51;;;;;;;12.00;1.92;;;;;;;;;;10431433;28;20509;-77
2022/05/21 11:16:16;;;;;;;8.23;1.63;;;;;;;;;;10436332;28;20060;-76
2022/05/21 11:21:33;;;;;;;8.07;1.55;;;;;;;;;;10402215;28;20124;-76
2022/05/21 11:26:40;;;;;;;9.75;1.80;;;;;;;;;;10434079;28;20097;-76
2022/05/21 11:37:21;;;;;;;7.38;1.27;;;;;;;;;;10427454;28;20423;-74
2022/05/21 11:42:23;;;;;;;8.55;1.75;;;;;;;;;;10401333;28;20034;-75
2022/05/21 11:47:33;;;;;;;5.60;1.23;;;;;;;;;;10418506;28;20099;-75
2022/05/21 11:52:35;;;;;;;6.95;1.50;;;;;;;;;;10415745;28;20106;-76
2022/05/21 11:57:51;;;;;;;7.35;1.55;;;;;;;;;;10412453;28;20045;-77
2022/05/21 12:08:10;;;;;;;8.88;1.52;;;;;;;;;;10438525;28;20065;-76
2022/05/21 12:13:16;;;;;;;7.43;1.63;;;;;;;;;;10421537;28;20037;-77
2022/05/21 12:18:32;;;;;;;11.45;1.65;;;;;;;;;;10433017;28;20045;-78
2022/05/21 12:23:34;;;;;;;6.68;1.63;;;;;;;;;;10425850;28;20103;-76
2022/05/21 12:28:44;;;;;;;8.88;1.50;;;;;;;;;;10439210;28;20144;-76
2022/05/21 12:34:04;;;;;;;9.07;1.70;;;;;;;;;;10422705;28;20045;-77
2022/05/21 12:39:08;;;;;;;7.95;1.33;;;;;;;;;;10412007;28;20041;-76
2022/05/21 12:44:11;;;;;;;8.35;1.65;;;;;;;;;;10438460;28;20432;-77
2022/05/21 12:49:16;;;;;;;7.18;1.30;;;;;;;;;;10445862;28;20063;-76
2022/05/21 12:54:19;;;;;;;5.70;1.40;;;;;;;;;;10426154;28;20127;-77
2022/05/21 12:59:24;;;;;;;5.70;1.20;;;;;;;;;;10436828;28;20131;-76
2022/05/21 13:04:38;;;;;;;8.25;1.48;;;;;;;;;;10417837;28;20072;-77
2022/05/21 13:09:50;;;;;;;6.63;1.58;;;;;;;;;;10411118;28;20664;-76
2022/05/21 13:14:52;;;;;;;6.43;1.13;;;;;;;;;;10443704;28;20140;-76
2022/05/21 13:20:15;;;;;;;7.68;1.60;;;;;;;;;;10430274;28;20076;-76
2022/05/21 13:25:17;;;;;;;6.03;1.27;;;;;;;;;;10418675;28;20102;-78
2022/05/21 13:30:28;;;;;;;9.75;1.45;;;;;;;;;;10426285;28;20036;-76
2022/05/21 13:35:33;;;;;;;7.05;1.55;;;;;;;;;;10426428;28;20120;-77
2022/05/21 13:40:47;;;;;;;8.40;1.33;;;;;;;;;;10435731;28;20032;-76
2022/05/21 13:45:55;;;;;;;9.45;1.50;;;;;;;;;;10439847;28;20049;-76
2022/05/21 13:50:56;;;;;;;16.52;2.08;;;;;;;18.48;nan;101799.44;10382510;28;20060;-77
2022/05/21 13:56:05;;;;;;;3.95;1.08;;;;;;;17.93;nan;101556.50;10372791;28;20081;-76
2022/05/21 14:01:22;;;;;;;7.63;1.50;;;;;;;17.68;nan;101439.94;10421599;28;20052;-76
2022/05/21 14:06:24;;;;;;;9.15;1.52;;;;;;;17.41;nan;101313.78;10417235;28;20148;-76
2022/05/21 14:11:27;;;;;;;5.28;1.42;;;;;;;;;;10421654;28;20037;-77
2022/05/21 14:16:33;;;;;;;15.43;2.55;;;;;;;;;;10390353;28;20149;-77
2022/05/21 14:21:37;;;;;;;9.52;1.65;;;;;;;;;;10414425;28;20048;-76
2022/05/21 14:26:39;;;;;;;8.10;1.40;;;;;;;;;;10436186;28;20057;-77
2022/05/21 14:31:41;;;;;;;13.18;1.40;;;;;;;;;;10419101;28;20059;-77
2022/05/21 14:36:45;;;;;;;8.75;1.65;;;;;;;;;;10416833;28;20076;-78
2022/05/21 14:41:49;;;;;;;9.82;1.70;;;;;;;;;;10416764;28;20401;-77
2022/05/21 14:57:32;;;;;;;7.10;1.38;;;;;;;;;;10425914;28;20041;-76
2022/05/21 15:02:34;;;;;;;10.43;1.80;;;;;;;;;;10414732;28;20124;-77
2022/05/21 15:07:38;;;;;;;8.63;1.75;;;;;;;;;;10426850;28;20044;-75
2022/05/21 15:12:40;;;;;;;11.13;1.73;;;;;;;;;;10398941;28;20055;-75
2022/05/21 15:17:43;;;;;;;10.85;1.77;;;;;;;;;;10422645;28;20045;-81
2022/05/21 15:22:45;;;;;;;9.65;1.73;;;;;;;;;;10434004;28;20076;-79
2022/05/21 15:27:47;;;;;;;8.10;1.85;;;;;;;;;;10390941;28;20064;-78
2022/05/21 15:32:49;;;;;;;7.70;1.30;;;;;;;;;;10422875;28;20143;-75
2022/05/21 15:37:50;;;;;;;8.20;1.70;;;;;;;;;;10416752;28;20091;-75
2022/05/21 15:42:52;;;;;;;10.75;2.20;;;;;;;;;;10430017;28;20121;-78
2022/05/21 15:48:00;;;;;;;12.02;1.75;;;;;;;;;;10420273;28;20076;-77
2022/05/21 15:53:02;;;;;;;6.43;1.55;;;;;;;;;;10433243;28;20152;-81
2022/05/21 15:58:04;;;;;;;7.82;1.75;;;;;;;;;;10440627;28;20041;-81
2022/05/21 16:03:06;;;;;;;8.93;2.15;;;;;;;;;;10439175;28;20136;-76
2022/05/21 16:08:07;;;;;;;8.65;1.52;;;;;;;;;;10426360;28;20405;-78
2022/05/21 16:13:10;;;;;;;10.10;2.30;;;;;;;;;;10411116;28;20060;-79
2022/05/21 16:18:13;;;;;;;7.63;1.40;;;;;;;;;;10413700;28;20049;-79
2022/05/21 16:23:16;;;;;;;6.43;1.77;;;;;;;;;;10444899;28;20492;-79
2022/05/21 16:28:17;;;;;;;11.25;2.22;;;;;;;;;;10455384;28;20053;-77
2022/05/21 16:33:18;;;;;;;5.60;1.40;;;;;;;;;;10452682;28;20049;-77
2022/05/21 16:38:20;;;;;;;8.63;1.92;;;;;;;;;;10437871;28;20528;-78
2022/05/21 16:43:23;;;;;;;7.13;1.60;;;;;;;;;;10445227;28;20832;-78
2022/05/21 16:48:27;;;;;;;15.88;1.95;;;;;;;;;;10408939;28;20102;-78
2022/05/21 16:53:29;;;;;;;13.20;3.47;;;;;;;;;;10446434;28;20364;-78
2022/05/21 16:58:30;;;;;;;8.70;1.70;;;;;;;;;;10434915;28;20508;-79
2022/05/21 17:03:32;;;;;;;8.50;1.80;;;;;;;;;;10446365;28;20243;-78
2022/05/21 17:08:33;;;;;;;9.55;2.10;;;;;;;;;;10429146;28;20141;-78
2022/05/21 17:13:35;;;;;;;9.52;1.60;;;;;;;;;;10445218;28;20048;-80
2022/05/21 17:18:37;;;;;;;11.20;1.75;;;;;;;;;;10452114;28;20044;-76
2022/05/21 17:23:40;;;;;;;13.57;2.25;;;;;;;;;;10448459;28;20136;-76
2022/05/21 17:34:02;;;;;;;9.27;1.92;;;;;;;;;;10414817;28;20047;-75
2022/05/21 17:39:06;;;;;;;7.93;2.10;;;;;;;;;;10435005;28;20055;-76
2022/05/21 17:44:07;;;;;;;9.00;2.00;;;;;;;;;;10443651;28;20051;-75
2022/05/21 17:49:09;;;;;;;11.38;1.98;;;;;;;;;;10433372;28;20055;-76
2022/05/21 17:54:13;;;;;;;10.43;1.85;;;;;;;;;;10414587;28;20047;-75
2022/05/21 17:59:15;;;;;;;9.32;1.92;;;;;;;;;;10422304;28;20045;-76
2022/05/21 18:04:16;;;;;;;11.85;1.83;;;;;;;;;;10414183;28;20176;-76
2022/05/21 18:09:17;;;;;;;10.02;2.10;;;;;;;;;;10440250;28;20672;-76
2022/05/21 18:14:19;;;;;;;13.50;2.67;;;;;;;;;;10415098;28;20052;-76
2022/05/21 18:19:21;;;;;;;11.50;2.10;;;;;;;;;;10431905;28;20417;-75
2022/05/21 18:24:24;;;;;;;11.80;2.13;;;;;;;;;;10425485;28;20044;-75
2022/05/21 18:29:26;;;;;;;9.93;2.00;;;;;;;;;;10401565;28;20045;-76
2022/05/21 18:34:28;;;;;;;13.50;2.63;;;;;;;;;;10452309;28;20048;-76
2022/05/21 18:39:30;;;;;;;13.65;2.78;;;;;;;14.93;nan;100199.69;10391943;28;20123;-78
2022/05/21 18:44:32;;;;;;;16.13;2.67;;;;;;;;;;10416256;28;20612;-76
2022/05/21 18:49:33;;;;;;;12.20;2.20;;;;;;;;;;10434782;28;20051;-78
2022/05/21 18:54:35;;;;;;;10.52;2.45;;;;;;;;;;10422511;28;20052;-78
2022/05/21 18:59:37;;;;;;;9.57;2.05;;;;;;;14.30;nan;99942.16;10408697;28;20037;-77
2022/05/21 19:04:40;;;;;;;13.45;2.20;;;;;;;;;;10413707;28;20759;-76
2022/05/21 19:09:41;;;;;;;10.23;2.20;;;;;;;;;;10434494;28;20681;-77
2022/05/21 19:14:43;;;;;;;13.07;2.10;;;;;;;;;;10420042;28;20049;-79
2022/05/21 19:19:45;;;;;;;14.10;2.30;;;;;;;;;;10426858;28;20098;-77
2022/05/21 19:24:47;;;;;;;11.88;2.05;;;;;;;;;;10426113;28;20051;-76
2022/05/21 19:29:53;;;;;;;11.15;1.98;;;;;;;;;;10425663;28;20038;-78
2022/05/21 19:34:55;;;;;;;10.57;2.17;;;;;;;;;;10444237;28;20131;-77
2022/05/21 19:45:17;;;;;;;;;;;;;;;;;;10433189;28;20048;-77
2022/05/21 19:50:22;;;;;;;8.73;1.70;;;;;;;;;;10423664;28;20023;-77
2022/05/21 19:55:24;;;;;;;16.90;3.50;;;;;;;;;;10435174;28;20061;-76
2022/05/21 20:00:26;;;;;;;13.63;2.00;;;;;;;;;;10420521;28;20398;-76
2022/05/21 20:05:29;;;;;;;9.05;2.08;;;;;;;;;;10443574;28;20045;-77
2022/05/21 20:10:30;;;;;;;9.10;2.05;;;;;;;;;;10411465;28;20068;-77
2022/05/21 20:15:33;;;;;;;15.13;2.80;;;;;;;;;;10441773;28;20059;-76
2022/05/21 20:20:35;;;;;;;16.25;2.33;;;;;;;;;;10435663;28;20044;-77
2022/05/21 20:25:37;;;;;;;11.98;2.10;;;;;;;12.81;nan;99380.34;10445094;28;20049;-77
2022/05/21 20:30:39;;;;;;;16.63;2.50;;;;;;;;;;10424702;28;20057;-77
2022/05/21 20:35:40;;;;;;;9.90;2.60;;;;;;;;;;10414104;28;20405;-77
2022/05/21 20:40:42;;;;;;;8.93;2.00;;;;;;;;;;10429633;28;20499;-76
2022/05/21 20:45:43;;;;;;;13.77;2.58;;;;;;;;;;10410374;28;20046;-76
2022/05/21 20:50:45;;;;;;;10.93;2.20;;;;;;;;;;10416246;28;20048;-76
2022/05/21 20:55:46;;;;;;;9.27;2.17;;;;;;;;;;10423144;28;20045;-76
2022/05/21 21:00:48;;;;;;;13.70;2.50;;;;;;;;;;10429593;28;20076;-76
2022/05/21 21:05:54;;;;;;;15.38;2.67;;;;;;;;;;10414916;28;20055;-76
2022/05/21 21:10:55;;;;;;;14.77;2.55;;;;;;;;;;10395445;28;20049;-77
2022/05/21 21:15:56;;;;;;;12.43;2.83;;;;;;;;;;10421794;28;20512;-76
2022/05/21 21:20:58;;;;;;;10.27;2.50;;;;;;;;;;10436033;28;20126;-76
2022/05/21 21:25:59;;;;;;;9.13;2.10;;;;;;;;;;10435515;28;20141;-76
2022/05/21 21:31:01;;;;;;;9.55;2.15;;;;;;;;;;10439155;28;20044;-77
2022/05/21 21:36:03;;;;;;;11.50;2.40;;;;;;;;;;10438113;28;20444;-77
2022/05/21 21:41:05;;;;;;;8.77;2.40;;;;;;;;;;10428518;28;20041;-76
2022/05/21 21:46:06;;;;;;;12.82;2.97;;;;;;;;;;10430287;28;20710;-77
2022/05/21 21:51:08;;;;;;;10.52;2.42;;;;;;;;;;10434139;28;20064;-76
2022/05/21 21:56:09;;;;;;;14.65;2.90;;;;;;;;;;10428657;28;20420;-77
2022/05/21 22:01:26;;;;;;;11.60;2.42;;;;;;;;;;10434642;28;20508;-77
2022/05/21 22:06:27;;;;;;;12.85;2.70;;;;;;;;;;10440431;28;20037;-76
2022/05/21 22:11:29;;;;;;;11.57;3.20;;;;;;;;;;10418337;28;20398;-76
2022/05/21 22:16:30;;;;;;;13.95;2.75;;;;;;;;;;10417851;28;20055;-76
2022/05/21 22:21:32;;;;;;;10.02;2.80;;;;;;;;;;10418976;28;20135;-76
2022/05/21 22:26:35;;;;;;;17.17;3.05;;;;;;;;;;10429068;28;20516;-76
2022/05/21 22:31:36;;;;;;;10.07;2.65;;;;;;;;;;10440283;28;20041;-76
2022/05/21 22:36:38;;;;;;;11.20;3.05;;;;;;;;;;10413157;28;20044;-76
2022/05/21 22:41:40;;;;;;;10.02;2.90;;;;;;;;;;10410448;28;20069;-77
2022/05/21 22:46:45;;;;;;;12.68;3.50;;;;;;;;;;10413241;28;20060;-77
2022/05/21 22:51:47;;;;;;;13.00;2.83;;;;;;;;;;10419613;28;20048;-77
2022/05/21 22:56:48;;;;;;;11.75;3.78;;;;;;;;;;10420367;28;20046;-76
2022/05/21 23:01:50;;;;;;;9.25;3.05;;;;;;;;;;10425253;28;20059;-76
2022/05/21 23:06:51;;;;;;;10.98;3.20;;;;;;;;;;10412229;28;20704;-76
2022/05/21 23:11:53;;;;;;;8.55;3.17;;;;;;;;;;10428548;28;20471;-76
2022/05/21 23:22:23;;;;;;;13.38;3.60;;;;;;;;;;10403496;28;20524;-76
2022/05/21 23:27:25;;;;;;;13.50;3.60;;;;;;;;;;10405561;28;20049;-76
2022/05/21 23:32:26;;;;;;;17.73;3.70;;;;;;;;;;10431384;28;20531;-76
2022/05/21 23:37:28;;;;;;;11.13;3.08;;;;;;;;;;10423857;28;20128;-75
2022/05/21 23:42:29;;;;;;;11.90;3.65;;;;;;;;;;10416406;28;20057;-76
2022/05/21 23:47:31;;;;;;;16.13;3.67;;;;;;;;;;10417449;28;20050;-76
2022/05/21 23:52:33;;;;;;;14.05;3.58;;;;;;;;;;10406978;28;20566;-76
2022/05/21 23:57:34;;;;;;;10.98;3.30;;;;;;;;;;10430716;28;20049;-75
